Terminal Aerodrome Forecast
Issued by NWS Austin/San Antonio, TX

Home | Current Version | Previous Version | Text Only | Print | Product List | Glossary On
Versions: 1 2 3 4 5 6 7 8 9 10 11 12 13 14 15 16
435
FTUS44 KEWX 231738
TAFSAT
TAF
KSAT 231738Z 2318/2424 19007KT P6SM FEW050 FEW250
     FM232200 14013KT P6SM SCT070 SCT250
     FM241000 18006KT P6SM BKN015
     FM241400 17007KT P6SM FEW040 SCT250
     FM242200 14012KT P6SM SCT060 SCT250=

USA.gov is the U.S. government's official web portal to all federal, state and local government web resources and services.